Time;durP1;ratioP1;P1;durP2;ratioP2;P2;SDS_P1;SDS_P2;PMS_P1;PMS_P2;Temp;Humidity;BMP_temperature;BMP_pressure;BME280_temperature;BME280_humidity;BME280_pressure;Samples;Min_cycle;Max_cycle;Signal;HPM_P1;HPM_P2
2022/09/06 00:01:44;;;;;;;0.20;0.20;;;;;;;;;;4148165;28;20054;-39
2022/09/06 00:03:45;;;;;;;0.55;0.10;;;;;;;;;;4147763;28;20053;-39
2022/09/06 00:05:47;;;;;;;0.20;0.10;;;;;;;;;;4148287;28;20462;-39
2022/09/06 00:07:49;;;;;;;0.10;0.10;;;;;;;;;;4148310;28;20058;-39
2022/09/06 00:09:51;;;;;;;0.10;0.10;;;;;;;;;;4147849;28;20104;-39
2022/09/06 00:11:52;;;;;;;0.20;0.20;;;;;;;;;;4147068;28;20502;-39
2022/09/06 00:13:53;;;;;;;0.20;0.10;;;;;;;;;;4148333;28;20061;-39
2022/09/06 00:15:54;;;;;;;0.10;0.10;;;;;;;;;;4148459;28;20100;-40
2022/09/06 00:18:00;;;;;;;0.17;0.17;;;;;;;;;;4147864;28;20112;-40
2022/09/06 00:20:03;;;;;;;0.20;0.10;;;;;;;;;;4148437;28;20058;-40
2022/09/06 00:22:06;;;;;;;0.10;0.10;;;;;;;;;;4148243;28;20061;-39
2022/09/06 00:24:08;;;;;;;0.10;0.10;;;;;;;;;;4148382;28;20104;-39
2022/09/06 00:26:10;;;;;;;0.20;0.20;;;;;;;;;;4146781;28;20100;-39
2022/09/06 00:28:11;;;;;;;0.20;0.10;;;;;;;;;;4146677;28;20158;-39
2022/09/06 00:30:13;;;;;;;0.10;0.10;;;;;;;;;;4148180;28;20053;-47
2022/09/06 00:32:14;;;;;;;0.10;0.10;;;;;;;;;;4147692;28;20100;-40
2022/09/06 00:34:15;;;;;;;0.10;0.10;;;;;;;;;;4147967;28;20375;-39
2022/09/06 00:36:17;;;;;;;0.10;0.10;;;;;;;;;;4146698;28;20050;-39
2022/09/06 00:38:18;;;;;;;0.15;0.13;;;;;;;;;;4146592;28;20069;-39
2022/09/06 00:40:19;;;;;;;0.10;0.10;;;;;;;;;;4147841;28;20552;-40
2022/09/06 00:42:20;;;;;;;0.22;0.20;;;;;;;;;;4147782;28;20089;-39
2022/09/06 00:44:21;;;;;;;0.13;0.13;;;;;;;;;;4147616;28;20111;-39
2022/09/06 00:46:26;;;;;;;0.08;0.08;;;;;;;;;;4147969;28;20061;-39
2022/09/06 00:48:27;;;;;;;0.20;0.20;;;;;;;;;;4147176;28;20116;-39
2022/09/06 00:50:29;;;;;;;0.20;0.10;;;;;;;;;;4147872;28;20057;-39
2022/09/06 00:52:31;;;;;;;0.10;0.10;;;;;;;;;;4147529;28;20100;-39
2022/09/06 00:54:32;;;;;;;0.08;0.08;;;;;;;;;;4147762;28;20521;-39
2022/09/06 00:56:37;;;;;;;0.77;0.20;;;;;;;;;;4146209;28;20390;-39
2022/09/06 00:58:39;;;;;;;0.10;0.10;;;;;;;;;;4146283;28;20120;-39
2022/09/06 01:00:40;;;;;;;0.25;0.20;;;;;;;;;;4146559;28;20469;-39
2022/09/06 01:02:41;;;;;;;0.35;0.30;;;;;;;;;;4147029;28;20058;-39
2022/09/06 01:04:44;;;;;;;0.20;0.20;;;;;;;;;;4146103;28;20064;-39
2022/09/06 01:06:54;;;;;;;0.38;0.20;;;;;;;;;;4147841;28;20112;-39
2022/09/06 01:09:29;;;;;;;0.05;0.05;;;;;;;;;;4147585;28;20060;-39
2022/09/06 01:11:48;;;;;;;0.30;0.20;;;;;;;;;;4146197;28;20061;-39
2022/09/06 01:14:04;;;;;;;0.25;0.20;;;;;;;;;;4147363;28;20115;-39
2022/09/06 01:16:12;;;;;;;0.28;0.10;;;;;;;;;;4146045;28;20058;-39
2022/09/06 01:18:29;;;;;;;0.30;0.10;;;;;;;;;;4145788;28;20072;-39
2022/09/06 01:20:32;;;;;;;0.20;0.20;;;;;;;;;;4147220;28;20096;-39
2022/09/06 01:22:57;;;;;;;0.20;0.20;;;;;;;;;;4146943;28;20054;-39
2022/09/06 01:25:43;;;;;;;0.13;0.10;;;;;;;;;;4147229;28;20520;-39
2022/09/06 01:28:09;;;;;;;0.10;0.10;;;;;;;;;;4146430;28;20064;-39
2022/09/06 01:30:12;;;;;;;0.10;0.10;;;;;;;;;;4147442;28;20062;-39
2022/09/06 01:32:20;;;;;;;0.15;0.10;;;;;;;;;;4146743;28;20058;-39
2022/09/06 01:34:32;;;;;;;0.15;0.10;;;;;;;;;;4145889;28;20092;-39
2022/09/06 01:36:59;;;;;;;0.10;0.10;;;;;;;;;;4113658;28;20058;-39
2022/09/06 01:39:01;;;;;;;0.20;0.20;;;;;;;;;;4145804;28;20100;-39
2022/09/06 01:41:02;;;;;;;0.28;0.28;;;;;;;;;;4145816;28;20049;-38
2022/09/06 01:43:05;;;;;;;0.10;0.10;;;;;;;;;;4144837;28;20062;-39
2022/09/06 01:45:13;;;;;;;0.40;0.20;;;;;;;;;;4145868;28;20054;-39
2022/09/06 01:47:34;;;;;;;0.28;0.28;;;;;;;;;;4144321;28;20089;-39
2022/09/06 01:50:01;;;;;;;0.10;0.10;;;;;;;;;;4146783;28;20457;-39
2022/09/06 01:52:16;;;;;;;0.25;0.20;;;;;;;;;;4129782;28;20058;-39
2022/09/06 01:54:38;;;;;;;1.05;0.30;;;;;;;;;;4147017;28;20054;-40
2022/09/06 01:57:05;;;;;;;0.10;0.10;;;;;;;;;;4146941;28;20568;-39
2022/09/06 01:59:32;;;;;;;0.10;0.10;;;;;;;;;;4146838;28;20435;-39
2022/09/06 02:01:33;;;;;;;0.32;0.10;;;;;;;;;;4145558;28;20381;-39
2022/09/06 02:03:49;;;;;;;0.13;0.13;;;;;;;;;;4146174;28;20121;-39
2022/09/06 02:05:56;;;;;;;0.10;0.10;;;;;;;;;;4146861;28;20058;-39
2022/09/06 02:08:10;;;;;;;0.30;0.10;;;;;;;;;;4145495;28;20247;-39
2022/09/06 02:10:17;;;;;;;0.10;0.10;;;;;;;;;;4145782;28;20112;-39
2022/09/06 02:12:19;;;;;;;0.20;0.20;;;;;;;;;;4145415;28;20103;-39
2022/09/06 02:14:31;;;;;;;0.15;0.15;;;;;;;;;;4145559;28;20057;-39
2022/09/06 02:16:34;;;;;;;0.17;0.17;;;;;;;;;;4130588;28;20077;-38
2022/09/06 02:18:52;;;;;;;0.10;0.10;;;;;;;;;;4128688;28;20105;-39
2022/09/06 02:20:55;;;;;;;0.13;0.10;;;;;;;;;;4145474;28;20418;-39
2022/09/06 02:23:00;;;;;;;0.10;0.10;;;;;;;;;;4145165;28;20088;-39
2022/09/06 02:25:04;;;;;;;0.32;0.20;;;;;;;;;;4146586;28;20050;-38
2022/09/06 02:27:06;;;;;;;0.10;0.10;;;;;;;;;;4146427;28;20588;-39
2022/09/06 02:29:07;;;;;;;0.25;0.25;;;;;;;;;;4146412;28;20084;-39
2022/09/06 02:31:22;;;;;;;0.20;0.10;;;;;;;;;;4145220;28;20140;-39
2022/09/06 02:33:27;;;;;;;0.10;0.10;;;;;;;;;;4148175;28;20064;-39
2022/09/06 02:35:29;;;;;;;0.10;0.10;;;;;;;;;;4149568;28;20104;-39
2022/09/06 02:37:30;;;;;;;1.27;0.20;;;;;;;;;;4149875;28;20058;-39
2022/09/06 02:39:31;;;;;;;0.10;0.10;;;;;;;;;;4149909;28;20069;-39
2022/09/06 02:41:33;;;;;;;0.20;0.13;;;;;;;;;;4149649;28;20080;-39
2022/09/06 02:43:34;;;;;;;0.20;0.20;;;;;;;;;;4149439;28;20104;-39
2022/09/06 02:45:35;;;;;;;0.28;0.20;;;;;;;;;;4148408;28;20100;-39
2022/09/06 02:47:37;;;;;;;0.30;0.10;;;;;;;;;;4149444;28;20087;-39
2022/09/06 02:49:38;;;;;;;0.10;0.10;;;;;;;;;;4149624;28;20493;-39
2022/09/06 02:51:39;;;;;;;0.20;0.10;;;;;;;;;;4149503;28;20461;-39
2022/09/06 02:53:40;;;;;;;0.20;0.20;;;;;;;;;;4149329;28;20359;-39
2022/09/06 02:55:42;;;;;;;0.10;0.10;;;;;;;;;;4148270;28;20049;-39
2022/09/06 02:57:43;;;;;;;0.40;0.20;;;;;;;;;;4149071;28;20485;-39
2022/09/06 02:59:45;;;;;;;0.25;0.20;;;;;;;;;;4149484;28;20060;-39
2022/09/06 03:01:46;;;;;;;0.47;0.20;;;;;;;;;;4149401;28;20097;-39
2022/09/06 03:03:47;;;;;;;0.85;0.20;;;;;;;;;;4148905;28;20157;-39
2022/09/06 03:05:50;;;;;;;0.70;0.20;;;;;;;;;;4149285;28;20050;-39
2022/09/06 03:07:53;;;;;;;0.30;0.10;;;;;;;;;;4149065;28;20070;-39
2022/09/06 03:09:55;;;;;;;0.20;0.20;;;;;;;;;;4149404;28;20053;-39
2022/09/06 03:11:58;;;;;;;0.30;0.20;;;;;;;;;;4147619;28;20552;-39
2022/09/06 03:13:59;;;;;;;0.00;0.00;;;;;;;;;;4149244;28;20064;-39
2022/09/06 03:16:01;;;;;;;0.57;0.13;;;;;;;;;;4149244;28;20124;-39
2022/09/06 03:18:02;;;;;;;0.20;0.20;;;;;;;;;;4148425;28;20413;-39
2022/09/06 03:20:04;;;;;;;0.10;0.10;;;;;;;;;;4149294;28;20172;-39
2022/09/06 03:22:05;;;;;;;0.20;0.20;;;;;;;;;;4149210;28;20157;-39
2022/09/06 03:24:06;;;;;;;0.30;0.10;;;;;;;;;;4148993;28;20116;-39
2022/09/06 03:26:07;;;;;;;0.15;0.10;;;;;;;;;;4149008;28;20470;-39
2022/09/06 03:28:09;;;;;;;0.17;0.17;;;;;;;;;;4148914;28;20057;-39
2022/09/06 03:30:10;;;;;;;0.20;0.20;;;;;;;;;;4148981;28;20058;-39
2022/09/06 03:32:11;;;;;;;0.30;0.30;;;;;;;;;;4130958;28;20085;-39
2022/09/06 03:34:13;;;;;;;0.10;0.10;;;;;;;;;;4147712;28;20315;-39
2022/09/06 03:36:14;;;;;;;0.10;0.10;;;;;;;;;;4149024;28;20057;-38
2022/09/06 03:38:16;;;;;;;0.20;0.20;;;;;;;;;;4147402;28;20101;-39
2022/09/06 03:40:18;;;;;;;0.45;0.10;;;;;;;;;;4148882;28;20106;-39
2022/09/06 03:42:20;;;;;;;0.20;0.15;;;;;;;;;;4148513;28;20061;-39
2022/09/06 03:44:21;;;;;;;0.10;0.10;;;;;;;;;;4146618;28;20560;-39
2022/09/06 03:46:23;;;;;;;0.13;0.10;;;;;;;;;;4147601;28;20061;-40
2022/09/06 03:48:27;;;;;;;0.20;0.10;;;;;;;;;;4148215;28;20136;-39
2022/09/06 03:50:28;;;;;;;0.20;0.10;;;;;;;;;;4148696;28;20084;-39
2022/09/06 03:52:29;;;;;;;0.50;0.20;;;;;;;;;;4147425;28;20053;-39
2022/09/06 03:54:30;;;;;;;0.20;0.20;;;;;;;;;;4148837;28;20061;-39
2022/09/06 03:56:31;;;;;;;0.90;0.20;;;;;;;;;;4147200;28;20054;-39
2022/09/06 03:58:32;;;;;;;0.20;0.10;;;;;;;;;;4148370;28;20062;-39
2022/09/06 04:00:34;;;;;;;0.15;0.15;;;;;;;;;;4148936;28;20101;-39
2022/09/06 04:02:35;;;;;;;0.30;0.10;;;;;;;;;;4147833;28;20119;-39
2022/09/06 04:04:36;;;;;;;0.20;0.20;;;;;;;;;;4148847;28;20092;-39
2022/09/06 04:06:37;;;;;;;0.20;0.20;;;;;;;;;;4148427;28;20105;-39
2022/09/06 04:08:38;;;;;;;0.10;0.10;;;;;;;;;;4148345;28;20119;-39
2022/09/06 04:10:39;;;;;;;0.30;0.10;;;;;;;;;;4148261;28;20593;-39
2022/09/06 04:12:40;;;;;;;0.10;0.10;;;;;;;;;;4148237;28;20061;-39
2022/09/06 04:14:42;;;;;;;0.10;0.10;;;;;;;;;;4147772;28;20092;-39
2022/09/06 04:16:43;;;;;;;0.20;0.10;;;;;;;;;;4130769;28;20127;-39
2022/09/06 04:18:44;;;;;;;0.17;0.15;;;;;;;;;;4162832;28;20142;-39
2022/09/06 04:20:50;;;;;;;0.10;0.10;;;;;;;;;;4147944;28;20053;-39
2022/09/06 04:22:52;;;;;;;0.20;0.20;;;;;;;;;;4148130;28;20135;-39
2022/09/06 04:24:53;;;;;;;0.20;0.20;;;;;;;;;;4147738;28;20058;-39
2022/09/06 04:26:54;;;;;;;0.10;0.10;;;;;;;;;;4148114;28;20053;-39
2022/09/06 04:28:55;;;;;;;0.13;0.13;;;;;;;;;;4146737;28;20469;-39
2022/09/06 04:30:59;;;;;;;0.32;0.10;;;;;;;;;;4148245;28;20054;-39
2022/09/06 04:33:00;;;;;;;0.30;0.20;;;;;;;;;;4147579;28;20116;-39
2022/09/06 04:35:01;;;;;;;0.10;0.10;;;;;;;;;;4148016;28;20096;-38
2022/09/06 04:37:02;;;;;;;0.28;0.20;;;;;;;;;;4147856;28;20111;-39
2022/09/06 04:39:04;;;;;;;0.20;0.15;;;;;;;;;;4147724;28;20124;-39
2022/09/06 04:41:06;;;;;;;0.08;0.08;;;;;;;;;;4147726;28;20493;-39
2022/09/06 04:43:07;;;;;;;0.10;0.10;;;;;;;;;;4147556;28;20081;-39
2022/09/06 04:45:09;;;;;;;0.20;0.20;;;;;;;;;;4146353;28;20084;-39
2022/09/06 04:47:14;;;;;;;0.30;0.13;;;;;;;;;;4147170;28;20054;-39
2022/09/06 04:49:15;;;;;;;0.25;0.20;;;;;;;;;;4146543;28;20061;-39
2022/09/06 04:51:17;;;;;;;0.13;0.13;;;;;;;;;;4146590;28;20050;-39
2022/09/06 04:53:18;;;;;;;0.10;0.10;;;;;;;;;;4147325;28;20100;-39
2022/09/06 04:55:20;;;;;;;0.17;0.17;;;;;;;;;;4147343;28;20064;-39
2022/09/06 04:57:21;;;;;;;0.35;0.17;;;;;;;;;;4146970;28;20101;-39
2022/09/06 04:59:22;;;;;;;0.20;0.20;;;;;;;;;;4147334;28;20485;-39
2022/09/06 05:01:25;;;;;;;0.10;0.10;;;;;;;;;;4134996;28;20054;-39
2022/09/06 05:03:26;;;;;;;0.13;0.10;;;;;;;;;;4127551;28;20485;-39
2022/09/06 05:05:27;;;;;;;0.57;0.20;;;;;;;;;;4129142;28;20113;-39
2022/09/06 05:07:28;;;;;;;0.40;0.20;;;;;;;;;;4129028;28;20458;-39
2022/09/06 05:09:31;;;;;;;0.22;0.10;;;;;;;;;;4129439;28;20062;-39
2022/09/06 05:11:33;;;;;;;0.10;0.10;;;;;;;;;;4127826;28;20100;-39
2022/09/06 05:13:34;;;;;;;0.10;0.10;;;;;;;;;;4129021;28;20069;-39
2022/09/06 05:15:35;;;;;;;0.20;0.20;;;;;;;;;;4129366;28;20109;-39
2022/09/06 05:17:36;;;;;;;0.30;0.25;;;;;;;;;;4128677;28;20101;-39
2022/09/06 05:19:39;;;;;;;0.60;0.40;;;;;;;;;;4136456;28;20069;-39
2022/09/06 05:21:40;;;;;;;0.25;0.25;;;;;;;;;;4144417;28;20061;-39
2022/09/06 05:23:42;;;;;;;0.30;0.30;;;;;;;;;;4142264;28;20090;-39
2022/09/06 05:25:43;;;;;;;0.20;0.20;;;;;;;;;;4141227;28;20057;-39
2022/09/06 05:27:44;;;;;;;0.20;0.20;;;;;;;;;;4144748;28;20128;-39
2022/09/06 05:29:45;;;;;;;0.30;0.30;;;;;;;;;;4144895;28;20112;-39
2022/09/06 05:31:46;;;;;;;0.10;0.10;;;;;;;;;;4142821;28;20061;-39
2022/09/06 05:33:48;;;;;;;0.20;0.17;;;;;;;;;;4137411;28;20108;-40
2022/09/06 05:35:49;;;;;;;0.40;0.13;;;;;;;;;;4133751;28;20056;-39
2022/09/06 05:37:50;;;;;;;0.10;0.10;;;;;;;;;;4142917;28;20061;-39
2022/09/06 05:39:51;;;;;;;0.30;0.20;;;;;;;;;;4139259;28;20094;-39
2022/09/06 05:41:52;;;;;;;0.13;0.13;;;;;;;;;;4134255;28;20061;-39
2022/09/06 05:43:54;;;;;;;0.20;0.20;;;;;;;;;;4142896;28;20152;-39
2022/09/06 05:45:55;;;;;;;0.88;0.30;;;;;;;;;;4144218;28;20072;-39
2022/09/06 05:47:56;;;;;;;0.20;0.20;;;;;;;;;;4142100;28;20064;-38
2022/09/06 05:49:58;;;;;;;0.30;0.28;;;;;;;;;;4136577;28;20054;-39
2022/09/06 05:51:59;;;;;;;0.30;0.30;;;;;;;;;;4141734;28;20128;-39
2022/09/06 05:54:00;;;;;;;0.20;0.20;;;;;;;;;;4144129;28;20046;-38
2022/09/06 05:56:03;;;;;;;0.30;0.30;;;;;;;;;;4136556;28;20176;-39
2022/09/06 05:58:07;;;;;;;0.30;0.30;;;;;;;;;;4124444;28;20057;-38
2022/09/06 06:00:10;;;;;;;0.13;0.10;;;;;;;;;;4117725;28;20089;-38
2022/09/06 06:02:15;;;;;;;3.50;0.30;;;;;;;;;;4135840;28;20062;-38
2022/09/06 06:04:21;;;;;;;0.57;0.20;;;;;;;;;;4132007;28;20510;-38
2022/09/06 06:06:23;;;;;;;0.30;0.28;;;;;;;;;;4135687;28;20054;-38
2022/09/06 06:08:24;;;;;;;2.58;0.20;;;;;;;;;;4123535;28;20073;-38
2022/09/06 06:10:26;;;;;;;0.47;0.25;;;;;;;;;;4128674;28;20066;-38
2022/09/06 06:12:27;;;;;;;0.65;0.30;;;;;;;;;;4126646;28;20053;-38
2022/09/06 06:14:28;;;;;;;0.30;0.20;;;;;;;;;;4129366;28;20461;-38
2022/09/06 06:16:29;;;;;;;2.38;0.30;;;;;;;;;;4131481;28;20081;-38
2022/09/06 06:18:31;;;;;;;0.20;0.20;;;;;;;;;;4133679;28;20062;-38
2022/09/06 06:20:32;;;;;;;0.50;0.40;;;;;;;;;;4127533;28;20077;-37
2022/09/06 06:22:34;;;;;;;0.20;0.20;;;;;;;;;;4127213;28;20085;-39
2022/09/06 06:24:35;;;;;;;0.20;0.20;;;;;;;;;;4128015;28;20108;-39
2022/09/06 06:26:37;;;;;;;0.30;0.20;;;;;;;;;;4127111;28;20054;-37
2022/09/06 06:28:38;;;;;;;1.95;0.10;;;;;;;;;;4120587;28;20053;-38
2022/09/06 06:30:39;;;;;;;0.50;0.50;;;;;;;;;;4120251;28;20054;-37
2022/09/06 06:32:41;;;;;;;0.10;0.10;;;;;;;;;;4118516;28;20521;-38
2022/09/06 06:34:42;;;;;;;0.55;0.25;;;;;;;;;;4130544;28;20169;-38
2022/09/06 06:36:43;;;;;;;0.30;0.20;;;;;;;;;;4123478;28;20054;-38
2022/09/06 06:38:45;;;;;;;0.35;0.25;;;;;;;;;;4125759;28;20089;-40
2022/09/06 06:40:46;;;;;;;0.15;0.10;;;;;;;;;;4128524;28;20058;-38
2022/09/06 06:42:47;;;;;;;1.42;0.28;;;;;;;;;;4120305;28;20112;-38
2022/09/06 06:44:48;;;;;;;2.15;0.30;;;;;;;;;;4130708;28;20113;-39
2022/09/06 06:46:50;;;;;;;0.75;0.32;;;;;;;;;;4131281;28;20413;-38
2022/09/06 06:48:53;;;;;;;1.17;0.40;;;;;;;;;;4126858;28;20064;-38
2022/09/06 06:50:54;;;;;;;0.17;0.17;;;;;;;;;;4129292;28;20730;-38
2022/09/06 06:52:56;;;;;;;0.85;0.20;;;;;;;;;;4134908;28;20066;-38
2022/09/06 06:54:57;;;;;;;0.60;0.22;;;;;;;;;;4118601;28;20058;-38
2022/09/06 06:56:58;;;;;;;1.40;0.30;;;;;;;;;;4118240;28;20417;-38
2022/09/06 06:59:01;;;;;;;0.82;0.30;;;;;;;;;;4116410;28;20780;-38
2022/09/06 07:01:02;;;;;;;0.45;0.20;;;;;;;;;;4117682;28;20053;-38
2022/09/06 07:03:04;;;;;;;1.25;0.50;;;;;;;;;;4108209;28;20425;-38
2022/09/06 07:05:06;;;;;;;1.58;0.47;;;;;;;;;;4095668;28;20089;-38
2022/09/06 07:07:07;;;;;;;0.85;0.30;;;;;;;;;;4127701;28;20054;-38
2022/09/06 07:09:08;;;;;;;0.57;0.40;;;;;;;;;;4128581;28;20061;-38
2022/09/06 07:11:11;;;;;;;2.58;0.32;;;;;;;;;;4126807;28;20576;-38
2022/09/06 07:13:12;;;;;;;0.35;0.28;;;;;;;;;;4128251;28;20108;-38
2022/09/06 07:15:14;;;;;;;2.03;0.30;;;;;;;;;;4131433;28;20111;-38
2022/09/06 07:17:15;;;;;;;0.30;0.17;;;;;;;;;;4124454;28;20054;-38
2022/09/06 07:19:16;;;;;;;0.28;0.20;;;;;;;;;;4130979;28;21982;-40
2022/09/06 07:21:20;;;;;;;0.68;0.20;;;;;;;;;;4131495;28;20096;-45
2022/09/06 07:23:24;;;;;;;1.88;0.20;;;;;;;;;;4131399;28;20058;-39
2022/09/06 07:25:25;;;;;;;1.70;0.15;;;;;;;;;;4127679;28;20081;-39
2022/09/06 07:27:27;;;;;;;0.73;0.28;;;;;;;;;;4121423;28;20755;-40
2022/09/06 07:29:29;;;;;;;0.20;0.20;;;;;;;;;;4107673;28;20053;-39
2022/09/06 07:31:31;;;;;;;0.47;0.47;;;;;;;;;;4116640;28;20054;-39
2022/09/06 07:33:34;;;;;;;0.30;0.25;;;;;;;;;;4121036;28;20081;-40
2022/09/06 07:35:35;;;;;;;0.20;0.20;;;;;;;;;;4115086;28;20053;-39
2022/09/06 07:37:36;;;;;;;0.30;0.20;;;;;;;;;;4127508;28;20513;-39
2022/09/06 07:39:38;;;;;;;0.57;0.13;;;;;;;;;;4117689;28;21840;-40
2022/09/06 07:41:39;;;;;;;0.25;0.20;;;;;;;;;;4116003;28;20618;-40
2022/09/06 07:43:41;;;;;;;0.13;0.13;;;;;;;;;;4129286;28;20058;-40
2022/09/06 07:45:42;;;;;;;0.20;0.20;;;;;;;;;;4125431;28;20619;-39
2022/09/06 07:47:43;;;;;;;0.82;0.20;;;;;;;;;;4125039;28;20128;-39
2022/09/06 07:49:44;;;;;;;0.25;0.20;;;;;;;;;;4121328;28;20080;-40
2022/09/06 07:51:46;;;;;;;0.38;0.20;;;;;;;;;;4121933;28;20065;-39
2022/09/06 07:53:50;;;;;;;0.17;0.17;;;;;;;;;;4120268;28;20764;-40
2022/09/06 07:55:51;;;;;;;0.40;0.20;;;;;;;;;;4123313;28;20058;-39
2022/09/06 07:57:52;;;;;;;0.30;0.30;;;;;;;;;;4133195;28;20057;-39
2022/09/06 07:59:53;;;;;;;2.25;0.30;;;;;;;;;;4128553;28;20054;-40
2022/09/06 08:01:54;;;;;;;1.10;0.20;;;;;;;;;;4115163;28;20069;-39
2022/09/06 08:04:03;;;;;;;0.40;0.20;;;;;;;;;;4109829;28;20080;-39
2022/09/06 08:06:05;;;;;;;0.17;0.10;;;;;;;;;;4121207;28;20046;-39
2022/09/06 08:08:06;;;;;;;0.15;0.13;;;;;;;;;;4126745;28;20074;-39
2022/09/06 08:10:07;;;;;;;0.43;0.10;;;;;;;;;;4115661;28;20105;-39
2022/09/06 08:12:09;;;;;;;0.20;0.10;;;;;;;;;;4127428;28;20517;-40
2022/09/06 08:14:10;;;;;;;0.30;0.20;;;;;;;;;;4118377;28;20088;-39
2022/09/06 08:16:12;;;;;;;0.85;0.40;;;;;;;;;;4120395;28;20103;-39
2022/09/06 08:18:14;;;;;;;0.45;0.20;;;;;;;;;;4111255;28;20251;-40
2022/09/06 08:20:15;;;;;;;1.13;0.20;;;;;;;;;;4118124;28;20468;-40
2022/09/06 08:22:17;;;;;;;0.20;0.10;;;;;;;;;;4113718;28;20250;-39
2022/09/06 08:24:18;;;;;;;0.30;0.13;;;;;;;;;;4106222;28;20050;-40
2022/09/06 08:26:21;;;;;;;0.30;0.20;;;;;;;;;;4113498;28;20125;-39
2022/09/06 08:28:22;;;;;;;1.95;0.50;;;;;;;;;;4128449;28;20121;-39
2022/09/06 08:30:23;;;;;;;0.30;0.20;;;;;;;;;;4126838;28;20058;-39
2022/09/06 08:32:25;;;;;;;0.10;0.10;;;;;;;;;;4129096;28;20062;-39
2022/09/06 08:34:27;;;;;;;0.25;0.20;;;;;;;;;;4129968;28;20070;-40
2022/09/06 08:36:29;;;;;;;0.55;0.20;;;;;;;;;;4131668;28;20140;-39
2022/09/06 08:38:31;;;;;;;0.55;0.32;;;;;;;;;;4126340;28;20099;-41
2022/09/06 08:40:32;;;;;;;2.03;0.30;;;;;;;;;;4124092;28;20053;-40
2022/09/06 08:42:38;;;;;;;0.32;0.20;;;;;;;;;;4126749;28;20054;-39
2022/09/06 08:44:48;;;;;;;0.70;0.10;;;;;;;;;;4117369;28;20551;-39
2022/09/06 08:46:59;;;;;;;;;;;;;;;;;;4125651;28;20046;-40
2022/09/06 08:49:00;;;;;;;0.93;0.20;;;;;;;;;;4121007;28;20247;-39
2022/09/06 08:51:38;;;;;;;0.25;0.20;;;;;;;;;;4121279;28;20116;-39
2022/09/06 08:53:43;;;;;;;2.05;0.20;;;;;;;;;;4124202;28;20162;-39
2022/09/06 08:55:55;;;;;;;0.32;0.30;;;;;;;;;;4124753;28;20045;-39
2022/09/06 08:57:59;;;;;;;1.52;0.30;;;;;;;;;;4121943;28;20482;-40
2022/09/06 09:00:01;;;;;;;0.17;0.17;;;;;;;;;;4103308;28;20526;-40
2022/09/06 09:02:15;;;;;;;0.15;0.15;;;;;;;;;;4098001;28;20089;-44
2022/09/06 09:04:19;;;;;;;1.65;0.20;;;;;;;;;;4119578;28;20064;-39
2022/09/06 09:06:22;;;;;;;0.10;0.10;;;;;;;;;;4124609;28;20045;-39
2022/09/06 09:08:49;;;;;;;0.20;0.20;;;;;;;;;;4120882;28;20065;-40
2022/09/06 09:11:00;;;;;;;0.38;0.20;;;;;;;;;;4107266;28;20061;-39
2022/09/06 09:13:03;;;;;;;1.60;0.32;;;;;;;;;;4103046;28;20058;-39
2022/09/06 09:15:08;;;;;;;0.30;0.30;;;;;;;;;;4105814;28;20911;-39
2022/09/06 09:17:15;;;;;;;0.47;0.30;;;;;;;;;;4121735;28;20112;-39
2022/09/06 09:19:16;;;;;;;0.60;0.25;;;;;;;;;;4119430;28;20057;-39
2022/09/06 09:21:22;;;;;;;0.15;0.15;;;;;;;;;;4120574;28;20057;-39
2022/09/06 09:23:24;;;;;;;0.40;0.20;;;;;;;;;;4118983;28;20140;-45
2022/09/06 09:25:25;;;;;;;0.20;0.17;;;;;;;;;;4140633;28;20148;-39
2022/09/06 09:27:27;;;;;;;0.20;0.20;;;;;;;;;;4100054;28;20164;-39
2022/09/06 09:29:28;;;;;;;0.55;0.45;;;;;;;;;;4123487;28;20061;-39
2022/09/06 09:31:34;;;;;;;0.20;0.20;;;;;;;;;;4114385;28;20046;-39
2022/09/06 09:33:38;;;;;;;0.40;0.30;;;;;;;;;;4107348;28;20160;-39
2022/09/06 09:35:40;;;;;;;0.10;0.10;;;;;;;;;;4120304;28;20096;-38
2022/09/06 09:37:42;;;;;;;1.20;0.30;;;;;;;;;;4127076;28;20054;-39
2022/09/06 09:39:44;;;;;;;0.15;0.10;;;;;;;;;;4123354;28;20397;-38
2022/09/06 09:41:49;;;;;;;0.10;0.10;;;;;;;;;;4106460;28;20054;-40
2022/09/06 09:44:05;;;;;;;0.28;0.20;;;;;;;;;;4077490;28;20140;-40
2022/09/06 09:46:31;;;;;;;0.28;0.20;;;;;;;;;;4121433;28;21065;-39
2022/09/06 09:48:33;;;;;;;0.17;0.10;;;;;;;;;;4122471;28;20152;-39
2022/09/06 09:50:34;;;;;;;0.40;0.30;;;;;;;;;;4122434;28;20064;-40
2022/09/06 09:52:42;;;;;;;0.30;0.25;;;;;;;;;;4125859;28;20058;-39
2022/09/06 09:54:45;;;;;;;0.47;0.30;;;;;;;;;;4132012;28;20394;-39
2022/09/06 09:56:54;;;;;;;0.75;0.40;;;;;;;;;;4127146;28;20062;-40
2022/09/06 09:58:56;;;;;;;0.52;0.30;;;;;;;;;;4124697;28;20096;-39
2022/09/06 10:01:14;;;;;;;0.17;0.13;;;;;;;;;;4125697;28;20050;-39
2022/09/06 10:03:17;;;;;;;1.55;0.20;;;;;;;;;;4126357;28;20069;-40
2022/09/06 10:05:19;;;;;;;0.32;0.30;;;;;;;;;;4117002;28;20058;-39
2022/09/06 10:07:24;;;;;;;0.63;0.30;;;;;;;;;;4125298;28;20054;-40
2022/09/06 10:09:35;;;;;;;0.20;0.20;;;;;;;;;;4131109;28;20058;-39
2022/09/06 10:11:54;;;;;;;1.50;0.30;;;;;;;;;;4129534;28;20053;-39
2022/09/06 10:14:10;;;;;;;0.40;0.30;;;;;;;;;;4123013;28;20050;-40
2022/09/06 10:16:11;;;;;;;0.30;0.20;;;;;;;;;;4132120;28;20505;-39
2022/09/06 10:18:35;;;;;;;0.25;0.10;;;;;;;;;;4127266;28;20762;-39
2022/09/06 10:20:58;;;;;;;0.40;0.28;;;;;;;;;;4141592;28;20493;-39
2022/09/06 10:23:16;;;;;;;2.22;0.30;;;;;;;;;;4125521;28;20641;-39
2022/09/06 10:25:37;;;;;;;0.22;0.20;;;;;;;;;;4119327;28;20482;-39
2022/09/06 10:28:01;;;;;;;0.20;0.20;;;;;;;;;;4117571;28;20214;-39
2022/09/06 10:30:08;;;;;;;0.30;0.20;;;;;;;;;;4117562;28;20062;-39
2022/09/06 10:32:35;;;;;;;0.10;0.10;;;;;;;;;;4103286;28;20801;-39
2022/09/06 10:35:02;;;;;;;0.70;0.30;;;;;;;;;;4111320;28;20108;-38
2022/09/06 10:37:28;;;;;;;0.50;0.20;;;;;;;;;;4123033;28;20171;-39
2022/09/06 10:39:49;;;;;;;0.40;0.20;;;;;;;;;;4117029;28;20053;-48
2022/09/06 10:42:21;;;;;;;0.40;0.25;;;;;;;;;;4115318;28;20050;-39
2022/09/06 10:44:32;;;;;;;0.40;0.20;;;;;;;;;;4123177;28;20141;-39
2022/09/06 10:46:35;;;;;;;0.75;0.38;;;;;;;;;;4115747;28;20050;-39
2022/09/06 10:48:44;;;;;;;0.40;0.20;;;;;;;;;;4115685;28;20072;-39
2022/09/06 10:51:04;;;;;;;0.28;0.20;;;;;;;;;;4125592;28;21776;-39
2022/09/06 10:53:12;;;;;;;0.73;0.20;;;;;;;;;;4122334;28;20486;-39
2022/09/06 10:55:16;;;;;;;0.30;0.30;;;;;;;;;;4129116;28;20058;-39
2022/09/06 10:57:41;;;;;;;0.63;0.20;;;;;;;;;;4130817;28;20106;-38
2022/09/06 10:59:49;;;;;;;0.28;0.20;;;;;;;;;;4133399;28;20115;-39
2022/09/06 11:02:19;;;;;;;0.30;0.20;;;;;;;;;;4120359;28;20066;-39
2022/09/06 11:04:33;;;;;;;0.40;0.10;;;;;;;;;;4127654;28;20069;-39
2022/09/06 11:06:42;;;;;;;0.30;0.20;;;;;;;;;;4142542;28;20058;-39
2022/09/06 11:08:57;;;;;;;0.22;0.20;;;;;;;;;;4125449;28;20057;-39
2022/09/06 11:11:04;;;;;;;0.32;0.20;;;;;;;;;;4131874;28;20053;-39
2022/09/06 11:13:17;;;;;;;0.47;0.28;;;;;;;;;;4108082;28;20109;-39
2022/09/06 11:15:19;;;;;;;0.73;0.30;;;;;;;;;;4131202;28;20498;-39
2022/09/06 11:17:30;;;;;;;2.38;0.25;;;;;;;;;;4125005;28;20564;-40
2022/09/06 11:19:40;;;;;;;0.47;0.30;;;;;;;;;;4126016;28;20066;-40
2022/09/06 11:22:07;;;;;;;0.50;0.20;;;;;;;;;;4128389;28;20050;-38
2022/09/06 11:24:43;;;;;;;0.30;0.20;;;;;;;;;;4119080;28;20049;-40
2022/09/06 11:27:03;;;;;;;3.95;0.35;;;;;;;;;;4131252;28;20144;-40
2022/09/06 11:29:22;;;;;;;0.40;0.20;;;;;;;;;;4128046;28;20119;-40
2022/09/06 11:31:26;;;;;;;0.95;0.20;;;;;;;;;;4131668;28;20110;-40
2022/09/06 11:33:29;;;;;;;0.50;0.25;;;;;;;;;;4113533;28;20085;-39
2022/09/06 11:35:31;;;;;;;0.40;0.30;;;;;;;;;;4118740;28;20058;-39
2022/09/06 11:37:48;;;;;;;0.10;0.10;;;;;;;;;;4106796;28;20077;-39
2022/09/06 11:40:23;;;;;;;0.22;0.22;;;;;;;;;;4103929;28;20752;-39
2022/09/06 11:43:00;;;;;;;0.50;0.35;;;;;;;;;;4138461;28;20599;-39
2022/09/06 11:45:04;;;;;;;0.20;0.20;;;;;;;;;;4111842;28;20066;-39
2022/09/06 11:47:06;;;;;;;0.20;0.20;;;;;;;;;;4127593;28;20065;-39
2022/09/06 11:49:26;;;;;;;0.43;0.25;;;;;;;;;;4122796;28;20140;-39
2022/09/06 11:51:42;;;;;;;1.33;0.20;;;;;;;;;;4123866;28;20112;-39
2022/09/06 11:53:47;;;;;;;0.40;0.30;;;;;;;;;;4107946;28;20061;-40
2022/09/06 11:55:50;;;;;;;0.30;0.20;;;;;;;;;;4116646;28;21505;-39
2022/09/06 11:57:57;;;;;;;0.15;0.10;;;;;;;;;;4121001;28;20057;-40
2022/09/06 12:00:00;;;;;;;0.30;0.22;;;;;;;;;;4120706;28;20064;-40
2022/09/06 12:02:03;;;;;;;0.30;0.20;;;;;;;;;;4114032;28;20928;-39
2022/09/06 12:04:06;;;;;;;0.43;0.20;;;;;;;;;;4117618;28;20069;-39
2022/09/06 12:06:26;;;;;;;0.50;0.28;;;;;;;;;;4112456;28;21043;-39
2022/09/06 12:08:32;;;;;;;0.45;0.25;;;;;;;;;;4126965;28;20566;-40
2022/09/06 12:10:39;;;;;;;0.22;0.22;;;;;;;;;;4125286;28;20088;-40
2022/09/06 12:12:43;;;;;;;0.40;0.30;;;;;;;;;;4110370;28;20077;-39
2022/09/06 12:14:45;;;;;;;0.38;0.30;;;;;;;;;;4122861;28;20473;-39
2022/09/06 12:17:07;;;;;;;0.22;0.20;;;;;;;;;;4118393;28;20112;-40
2022/09/06 12:19:08;;;;;;;0.20;0.20;;;;;;;;;;4116776;28;20069;-39
2022/09/06 12:21:36;;;;;;;0.40;0.20;;;;;;;;;;4127528;28;20066;-39
2022/09/06 12:23:39;;;;;;;0.30;0.30;;;;;;;;;;4129185;28;20374;-39
2022/09/06 12:25:40;;;;;;;0.10;0.10;;;;;;;;;;4132274;28;20560;-39
2022/09/06 12:27:56;;;;;;;0.50;0.20;;;;;;;;;;4120056;28;20057;-39
2022/09/06 12:29:59;;;;;;;0.20;0.20;;;;;;;;;;4119493;28;20754;-39
2022/09/06 12:32:02;;;;;;;0.82;0.28;;;;;;;;;;4118393;28;20070;-39
2022/09/06 12:34:11;;;;;;;0.22;0.22;;;;;;;;;;4131683;28;20054;-39